BAW211 LGAV-HEAX
Flight info
| Callsign | BAW211 |
|---|---|
| Flight time | 1h 19m |
| Altitude | 39000 |
| Route | KEA UL607 PAXIS L607 NABSI L617 NOZ |
| Aircraft | A319/M-SDE2E3FGHIJ1RWXY/SB1 |
Departure
| Time | 2026-04-21 11:47 |
|---|---|
| Airport | Athens Eleftherios Venizelos International Airport (LGAV) |
Arrival
| Time | 2026-04-21 13:06 |
|---|---|
| Airport | Alexandria International Airport (HEAX) |
| Time | Latitude | Longitude | Altitude | Speed | Heading |
|---|---|---|---|---|---|
| 2026-04-21 10:53 | 37.93172 | 23.94314 | 287 ft | 0 kts | 220° |
| 2026-04-21 11:31 | 37.93174 | 23.94316 | 287 ft | 3 kts | 220° |
| 2026-04-21 11:31 | 37.93194 | 23.94338 | 292 ft | 4 kts | 219° |
| 2026-04-21 11:31 | 37.93215 | 23.94360 | 286 ft | 3 kts | 218° |
| 2026-04-21 11:32 | 37.93219 | 23.94363 | 286 ft | 0 kts | 218° |
| 2026-04-21 11:32 | 37.93225 | 23.94371 | 292 ft | 2 kts | 193° |
| 2026-04-21 11:32 | 37.93240 | 23.94370 | 288 ft | 1 kts | 123° |
| 2026-04-21 11:35 | 37.93238 | 23.94373 | 291 ft | 2 kts | 127° |
| 2026-04-21 11:36 | 37.93224 | 23.94395 | 290 ft | 5 kts | 129° |
| 2026-04-21 11:36 | 37.93193 | 23.94444 | 287 ft | 9 kts | 128° |
| 2026-04-21 11:36 | 37.93156 | 23.94505 | 287 ft | 10 kts | 127° |
| 2026-04-21 11:36 | 37.93115 | 23.94574 | 290 ft | 11 kts | 127° |
| 2026-04-21 11:37 | 37.93063 | 23.94664 | 287 ft | 14 kts | 115° |
| 2026-04-21 11:37 | 37.93115 | 23.94771 | 286 ft | 13 kts | 36° |
| 2026-04-21 11:37 | 37.93199 | 23.94851 | 290 ft | 17 kts | 37° |
| 2026-04-21 11:37 | 37.93298 | 23.94944 | 285 ft | 15 kts | 37° |
| 2026-04-21 11:38 | 37.93390 | 23.95032 | 284 ft | 18 kts | 37° |
| 2026-04-21 11:38 | 37.93493 | 23.95129 | 283 ft | 17 kts | 37° |
| 2026-04-21 11:38 | 37.93592 | 23.95224 | 284 ft | 17 kts | 37° |
| 2026-04-21 11:38 | 37.93686 | 23.95314 | 281 ft | 18 kts | 37° |
| 2026-04-21 11:39 | 37.93784 | 23.95407 | 280 ft | 16 kts | 37° |
| 2026-04-21 11:39 | 37.93870 | 23.95489 | 279 ft | 14 kts | 37° |
| 2026-04-21 11:39 | 37.93961 | 23.95574 | 278 ft | 18 kts | 36° |
| 2026-04-21 11:39 | 37.94063 | 23.95672 | 277 ft | 20 kts | 38° |
| 2026-04-21 11:40 | 37.94170 | 23.95774 | 278 ft | 20 kts | 36° |
| 2026-04-21 11:40 | 37.94282 | 23.95881 | 278 ft | 18 kts | 37° |
| 2026-04-21 11:40 | 37.94382 | 23.95975 | 274 ft | 18 kts | 37° |
| 2026-04-21 11:40 | 37.94492 | 23.96080 | 273 ft | 20 kts | 37° |
| 2026-04-21 11:41 | 37.94601 | 23.96184 | 274 ft | 20 kts | 37° |
| 2026-04-21 11:41 | 37.94722 | 23.96300 | 271 ft | 24 kts | 37° |
| 2026-04-21 11:41 | 37.94842 | 23.96413 | 269 ft | 17 kts | 37° |
| 2026-04-21 11:41 | 37.94946 | 23.96513 | 268 ft | 21 kts | 37° |
| 2026-04-21 11:42 | 37.95062 | 23.96623 | 267 ft | 22 kts | 37° |
| 2026-04-21 11:42 | 37.95177 | 23.96733 | 265 ft | 22 kts | 37° |
| 2026-04-21 11:42 | 37.95285 | 23.96835 | 264 ft | 14 kts | 39° |
| 2026-04-21 11:42 | 37.95272 | 23.96943 | 263 ft | 3 kts | 127° |
| 2026-04-21 11:46 | 37.95262 | 23.96960 | 264 ft | 5 kts | 126° |
| 2026-04-21 11:46 | 37.95224 | 23.97014 | 264 ft | 10 kts | 150° |
| 2026-04-21 11:46 | 37.95169 | 23.96998 | 266 ft | 0 kts | 214° |
| 2026-04-21 11:47 | 37.95081 | 23.96913 | 267 ft | 55 kts | 217° |
| 2026-04-21 11:47 | 37.94489 | 23.96350 | 308 ft | 147 kts | 216° |
| 2026-04-21 11:47 | 37.93661 | 23.95573 | 1236 ft | 152 kts | 214° |
| 2026-04-21 11:47 | 37.92709 | 23.94827 | 1943 ft | 172 kts | 208° |
| 2026-04-21 11:48 | 37.91578 | 23.94054 | 2480 ft | 198 kts | 208° |
| 2026-04-21 11:48 | 37.90283 | 23.93170 | 3252 ft | 225 kts | 209° |
| 2026-04-21 11:48 | 37.88859 | 23.92196 | 4336 ft | 237 kts | 210° |
| 2026-04-21 11:48 | 37.87391 | 23.91193 | 5617 ft | 242 kts | 211° |
| 2026-04-21 11:49 | 37.85882 | 23.90160 | 6541 ft | 248 kts | 211° |
| 2026-04-21 11:49 | 37.84336 | 23.89100 | 7628 ft | 255 kts | 211° |
| 2026-04-21 11:49 | 37.82615 | 23.88250 | 8529 ft | 280 kts | 192° |
| 2026-04-21 11:49 | 37.80652 | 23.88498 | 9567 ft | 298 kts | 162° |
| 2026-04-21 11:50 | 37.78827 | 23.89893 | 10451 ft | 318 kts | 146° |
| 2026-04-21 11:50 | 37.76978 | 23.91617 | 10996 ft | 343 kts | 144° |
| 2026-04-21 11:50 | 37.75011 | 23.93512 | 11452 ft | 368 kts | 144° |
| 2026-04-21 11:50 | 37.72916 | 23.95552 | 11764 ft | 392 kts | 144° |
| 2026-04-21 11:51 | 37.70686 | 23.97717 | 12006 ft | 415 kts | 144° |
| 2026-04-21 11:51 | 37.68351 | 23.99962 | 12558 ft | 427 kts | 144° |
| 2026-04-21 11:51 | 37.65996 | 24.02207 | 13313 ft | 433 kts | 144° |
| 2026-04-21 11:51 | 37.63573 | 24.04505 | 14044 ft | 438 kts | 144° |
| 2026-04-21 11:52 | 37.61111 | 24.06829 | 14699 ft | 443 kts | 145° |
| 2026-04-21 11:52 | 37.58626 | 24.09175 | 15366 ft | 447 kts | 144° |
| 2026-04-21 11:52 | 37.56129 | 24.11535 | 16018 ft | 451 kts | 144° |
| 2026-04-21 11:52 | 37.53603 | 24.13925 | 16651 ft | 455 kts | 145° |
| 2026-04-21 11:53 | 37.51056 | 24.16335 | 17270 ft | 459 kts | 145° |
| 2026-04-21 11:53 | 37.48488 | 24.18759 | 17871 ft | 463 kts | 145° |
| 2026-04-21 11:53 | 37.45927 | 24.21173 | 18418 ft | 467 kts | 145° |
| 2026-04-21 11:53 | 37.43317 | 24.23629 | 18922 ft | 471 kts | 145° |
| 2026-04-21 11:54 | 37.40686 | 24.26100 | 19420 ft | 474 kts | 145° |
| 2026-04-21 11:54 | 37.38024 | 24.28599 | 19905 ft | 477 kts | 145° |
| 2026-04-21 11:54 | 37.35343 | 24.31111 | 20370 ft | 481 kts | 145° |
| 2026-04-21 11:54 | 37.32647 | 24.33636 | 20812 ft | 484 kts | 145° |
| 2026-04-21 11:55 | 37.29971 | 24.36141 | 21225 ft | 487 kts | 145° |
| 2026-04-21 11:55 | 37.27245 | 24.38689 | 21629 ft | 490 kts | 145° |
| 2026-04-21 11:55 | 37.24497 | 24.41258 | 22006 ft | 493 kts | 145° |
| 2026-04-21 11:55 | 37.21737 | 24.43837 | 22378 ft | 496 kts | 145° |
| 2026-04-21 11:56 | 37.18959 | 24.46434 | 22735 ft | 499 kts | 145° |
| 2026-04-21 11:56 | 37.16168 | 24.49041 | 23076 ft | 502 kts | 145° |
| 2026-04-21 11:56 | 37.13388 | 24.51638 | 23414 ft | 505 kts | 145° |
| 2026-04-21 11:56 | 37.10560 | 24.54272 | 23731 ft | 507 kts | 145° |
| 2026-04-21 11:57 | 37.07716 | 24.56914 | 24023 ft | 509 kts | 145° |
| 2026-04-21 11:57 | 37.04857 | 24.59562 | 24310 ft | 511 kts | 146° |
| 2026-04-21 11:57 | 37.01988 | 24.62220 | 24587 ft | 513 kts | 146° |
| 2026-04-21 11:57 | 36.99151 | 24.64849 | 24921 ft | 514 kts | 145° |
| 2026-04-21 11:58 | 36.96282 | 24.67514 | 25347 ft | 512 kts | 145° |
| 2026-04-21 11:58 | 36.93425 | 24.70166 | 25814 ft | 511 kts | 146° |
| 2026-04-21 11:58 | 36.90575 | 24.72807 | 26285 ft | 509 kts | 146° |
| 2026-04-21 11:58 | 36.87728 | 24.75438 | 26719 ft | 509 kts | 146° |
| 2026-04-21 11:59 | 36.84879 | 24.78067 | 27161 ft | 509 kts | 146° |
| 2026-04-21 11:59 | 36.82033 | 24.80690 | 27642 ft | 508 kts | 146° |
| 2026-04-21 11:59 | 36.79196 | 24.83303 | 28139 ft | 507 kts | 146° |
| 2026-04-21 11:59 | 36.76354 | 24.85915 | 28667 ft | 506 kts | 146° |
| 2026-04-21 12:00 | 36.73513 | 24.88520 | 29205 ft | 505 kts | 146° |
| 2026-04-21 12:00 | 36.70682 | 24.91116 | 29756 ft | 505 kts | 146° |
| 2026-04-21 12:00 | 36.67859 | 24.93706 | 30287 ft | 504 kts | 146° |
| 2026-04-21 12:00 | 36.65041 | 24.96294 | 30787 ft | 503 kts | 146° |
| 2026-04-21 12:01 | 36.62229 | 24.98874 | 31302 ft | 501 kts | 146° |
| 2026-04-21 12:01 | 36.59411 | 25.01452 | 31809 ft | 500 kts | 147° |
| 2026-04-21 12:01 | 36.56637 | 25.03988 | 32330 ft | 499 kts | 147° |
| 2026-04-21 12:01 | 36.53846 | 25.06538 | 32868 ft | 498 kts | 147° |
| 2026-04-21 12:02 | 36.51051 | 25.09092 | 33415 ft | 497 kts | 147° |
| 2026-04-21 12:02 | 36.45477 | 25.14175 | 34468 ft | 495 kts | 147° |
| 2026-04-21 12:02 | 36.42695 | 25.16704 | 34963 ft | 494 kts | 147° |
| 2026-04-21 12:03 | 36.39938 | 25.19205 | 35459 ft | 493 kts | 148° |
| 2026-04-21 12:03 | 36.37197 | 25.21689 | 35945 ft | 493 kts | 148° |
| 2026-04-21 12:03 | 36.34412 | 25.24215 | 36432 ft | 492 kts | 148° |
| 2026-04-21 12:03 | 36.31642 | 25.26727 | 36902 ft | 491 kts | 148° |
| 2026-04-21 12:04 | 36.28883 | 25.29228 | 37396 ft | 490 kts | 148° |
| 2026-04-21 12:04 | 36.26139 | 25.31717 | 37870 ft | 489 kts | 148° |
| 2026-04-21 12:04 | 36.23393 | 25.34207 | 38335 ft | 488 kts | 148° |
| 2026-04-21 12:04 | 36.20650 | 25.36691 | 38777 ft | 487 kts | 148° |
| 2026-04-21 12:05 | 36.17917 | 25.39158 | 38959 ft | 488 kts | 148° |
| 2026-04-21 12:05 | 36.12422 | 25.44107 | 39018 ft | 487 kts | 148° |
| 2026-04-21 12:06 | 36.06986 | 25.48996 | 39024 ft | 487 kts | 148° |
| 2026-04-21 12:06 | 36.01486 | 25.53949 | 39029 ft | 486 kts | 148° |
| 2026-04-21 12:07 | 35.96043 | 25.58833 | 39021 ft | 486 kts | 148° |
| 2026-04-21 12:07 | 35.90563 | 25.63739 | 39030 ft | 486 kts | 148° |
| 2026-04-21 12:08 | 35.85077 | 25.68645 | 39035 ft | 486 kts | 149° |
| 2026-04-21 12:08 | 35.80512 | 25.72712 | 39028 ft | 486 kts | 149° |
| 2026-04-21 12:09 | 35.74129 | 25.78390 | 39011 ft | 486 kts | 149° |
| 2026-04-21 12:09 | 35.69524 | 25.82478 | 39015 ft | 486 kts | 149° |
| 2026-04-21 12:10 | 35.64076 | 25.87316 | 39021 ft | 486 kts | 149° |
| 2026-04-21 12:10 | 35.58572 | 25.92192 | 39021 ft | 486 kts | 149° |
| 2026-04-21 12:11 | 35.53079 | 25.97060 | 39023 ft | 487 kts | 149° |
| 2026-04-21 12:11 | 35.47568 | 26.01931 | 39022 ft | 487 kts | 149° |
| 2026-04-21 12:12 | 35.42087 | 26.06762 | 39028 ft | 488 kts | 149° |
| 2026-04-21 12:12 | 35.36567 | 26.11619 | 39031 ft | 488 kts | 149° |
| 2026-04-21 12:13 | 35.31043 | 26.16470 | 39034 ft | 488 kts | 149° |
| 2026-04-21 12:13 | 35.25556 | 26.21286 | 39035 ft | 488 kts | 149° |
| 2026-04-21 12:14 | 35.20030 | 26.26129 | 39014 ft | 488 kts | 149° |
| 2026-04-21 12:14 | 35.14537 | 26.30931 | 39020 ft | 487 kts | 149° |
| 2026-04-21 12:15 | 35.09007 | 26.35756 | 39027 ft | 487 kts | 149° |
| 2026-04-21 12:15 | 35.03483 | 26.40567 | 39030 ft | 487 kts | 149° |
| 2026-04-21 12:16 | 34.98001 | 26.45332 | 39025 ft | 487 kts | 149° |
| 2026-04-21 12:16 | 34.92455 | 26.50144 | 39030 ft | 487 kts | 149° |
| 2026-04-21 12:17 | 34.86923 | 26.54939 | 39018 ft | 487 kts | 149° |
| 2026-04-21 12:17 | 34.81404 | 26.59709 | 39027 ft | 488 kts | 149° |
| 2026-04-21 12:18 | 34.75864 | 26.64494 | 39032 ft | 488 kts | 149° |
| 2026-04-21 12:18 | 34.70319 | 26.69288 | 39042 ft | 489 kts | 149° |
| 2026-04-21 12:19 | 34.64809 | 26.74041 | 39044 ft | 489 kts | 149° |
| 2026-04-21 12:19 | 34.59225 | 26.78838 | 39036 ft | 489 kts | 149° |
| 2026-04-21 12:20 | 34.53725 | 26.83555 | 39046 ft | 488 kts | 149° |
| 2026-04-21 12:20 | 34.48150 | 26.88330 | 39053 ft | 488 kts | 149° |
| 2026-04-21 12:21 | 34.42601 | 26.93082 | 39053 ft | 488 kts | 149° |
| 2026-04-21 12:21 | 34.37044 | 26.97823 | 39059 ft | 488 kts | 150° |
| 2026-04-21 12:22 | 34.31479 | 27.02560 | 39042 ft | 489 kts | 150° |
| 2026-04-21 12:22 | 34.25917 | 27.07296 | 39048 ft | 489 kts | 150° |
| 2026-04-21 12:23 | 34.20382 | 27.11997 | 39052 ft | 489 kts | 150° |
| 2026-04-21 12:23 | 34.14796 | 27.16736 | 39056 ft | 489 kts | 150° |
| 2026-04-21 12:24 | 34.09246 | 27.21430 | 39058 ft | 489 kts | 150° |
| 2026-04-21 12:24 | 34.03651 | 27.26170 | 39047 ft | 490 kts | 150° |
| 2026-04-21 12:25 | 33.98063 | 27.30895 | 39053 ft | 490 kts | 150° |
| 2026-04-21 12:25 | 33.92462 | 27.35591 | 39063 ft | 490 kts | 151° |
| 2026-04-21 12:26 | 33.86824 | 27.40133 | 39066 ft | 489 kts | 152° |
| 2026-04-21 12:26 | 33.81125 | 27.44651 | 39062 ft | 490 kts | 152° |
| 2026-04-21 12:27 | 33.75443 | 27.49188 | 39061 ft | 490 kts | 152° |
| 2026-04-21 12:27 | 33.69809 | 27.53728 | 39056 ft | 490 kts | 152° |
| 2026-04-21 12:28 | 33.64133 | 27.58282 | 39069 ft | 490 kts | 152° |
| 2026-04-21 12:28 | 33.58481 | 27.62806 | 39070 ft | 490 kts | 152° |
| 2026-04-21 12:29 | 33.52801 | 27.67339 | 39072 ft | 490 kts | 152° |
| 2026-04-21 12:29 | 33.47111 | 27.71872 | 39073 ft | 490 kts | 152° |
| 2026-04-21 12:30 | 33.41435 | 27.76397 | 39057 ft | 490 kts | 152° |
| 2026-04-21 12:30 | 33.35755 | 27.80901 | 39066 ft | 489 kts | 152° |
| 2026-04-21 12:31 | 33.30108 | 27.85374 | 39069 ft | 489 kts | 152° |
| 2026-04-21 12:31 | 33.24439 | 27.89868 | 39071 ft | 489 kts | 152° |
| 2026-04-21 12:32 | 33.18751 | 27.94365 | 39073 ft | 489 kts | 152° |
| 2026-04-21 12:32 | 33.13064 | 27.98852 | 39062 ft | 489 kts | 152° |
| 2026-04-21 12:33 | 33.07391 | 28.03337 | 39067 ft | 489 kts | 152° |
| 2026-04-21 12:33 | 33.01718 | 28.07818 | 39070 ft | 489 kts | 152° |
| 2026-04-21 12:34 | 32.96065 | 28.12244 | 39068 ft | 489 kts | 153° |
| 2026-04-21 12:34 | 32.90378 | 28.16698 | 39069 ft | 489 kts | 153° |
| 2026-04-21 12:35 | 32.84696 | 28.21152 | 39051 ft | 489 kts | 153° |
| 2026-04-21 12:35 | 32.79012 | 28.25603 | 39060 ft | 489 kts | 153° |
| 2026-04-21 12:36 | 32.73323 | 28.30047 | 39065 ft | 489 kts | 153° |
| 2026-04-21 12:36 | 32.67624 | 28.34482 | 39070 ft | 489 kts | 153° |
| 2026-04-21 12:37 | 32.61954 | 28.38892 | 39078 ft | 489 kts | 153° |
| 2026-04-21 12:37 | 32.56258 | 28.43334 | 39080 ft | 489 kts | 153° |
| 2026-04-21 12:38 | 32.50560 | 28.47752 | 39083 ft | 489 kts | 153° |
| 2026-04-21 12:38 | 32.44886 | 28.52149 | 39084 ft | 489 kts | 153° |
| 2026-04-21 12:39 | 32.39173 | 28.56571 | 39083 ft | 489 kts | 153° |
| 2026-04-21 12:39 | 32.33460 | 28.60975 | 39084 ft | 489 kts | 153° |
| 2026-04-21 12:40 | 32.27775 | 28.65357 | 39056 ft | 489 kts | 153° |
| 2026-04-21 12:40 | 32.22066 | 28.69760 | 39057 ft | 489 kts | 153° |
| 2026-04-21 12:41 | 32.16352 | 28.74151 | 39067 ft | 489 kts | 153° |
| 2026-04-21 12:41 | 32.10643 | 28.78533 | 39066 ft | 489 kts | 153° |
| 2026-04-21 12:42 | 32.04964 | 28.82891 | 39070 ft | 489 kts | 153° |
| 2026-04-21 12:42 | 31.99240 | 28.87268 | 39071 ft | 489 kts | 154° |
| 2026-04-21 12:43 | 31.93525 | 28.91634 | 39048 ft | 489 kts | 154° |
| 2026-04-21 12:43 | 31.87799 | 28.96003 | 39060 ft | 489 kts | 154° |
| 2026-04-21 12:44 | 31.82111 | 29.00339 | 39066 ft | 490 kts | 154° |
| 2026-04-21 12:44 | 31.76541 | 29.04582 | 39072 ft | 490 kts | 153° |
| 2026-04-21 12:44 | 31.73817 | 29.07053 | 38959 ft | 497 kts | 144° |
| 2026-04-21 12:45 | 31.71397 | 29.10000 | 38265 ft | 507 kts | 134° |
| 2026-04-21 12:45 | 31.69302 | 29.13341 | 37149 ft | 509 kts | 130° |
| 2026-04-21 12:45 | 31.67242 | 29.16746 | 35752 ft | 511 kts | 129° |
| 2026-04-21 12:45 | 31.65177 | 29.20154 | 34491 ft | 511 kts | 129° |
| 2026-04-21 12:46 | 31.63125 | 29.23526 | 33414 ft | 503 kts | 129° |
| 2026-04-21 12:46 | 31.61100 | 29.26845 | 32227 ft | 497 kts | 129° |
| 2026-04-21 12:46 | 31.59107 | 29.30097 | 30946 ft | 495 kts | 129° |
| 2026-04-21 12:46 | 31.57100 | 29.33361 | 29638 ft | 491 kts | 130° |
| 2026-04-21 12:47 | 31.55098 | 29.36602 | 28213 ft | 488 kts | 129° |
| 2026-04-21 12:47 | 31.53100 | 29.39825 | 26868 ft | 488 kts | 129° |
| 2026-04-21 12:47 | 31.51106 | 29.43037 | 25588 ft | 488 kts | 128° |
| 2026-04-21 12:47 | 31.49113 | 29.46258 | 24360 ft | 487 kts | 128° |
| 2026-04-21 12:48 | 31.47141 | 29.49451 | 23093 ft | 479 kts | 127° |
| 2026-04-21 12:48 | 31.45202 | 29.52588 | 21771 ft | 470 kts | 127° |
| 2026-04-21 12:48 | 31.43298 | 29.55664 | 20523 ft | 462 kts | 127° |
| 2026-04-21 12:48 | 31.41422 | 29.58691 | 19336 ft | 456 kts | 127° |
| 2026-04-21 12:49 | 31.39590 | 29.61645 | 18207 ft | 450 kts | 127° |
| 2026-04-21 12:49 | 31.37765 | 29.64583 | 16961 ft | 441 kts | 127° |
| 2026-04-21 12:49 | 31.35972 | 29.67463 | 15782 ft | 431 kts | 126° |
| 2026-04-21 12:49 | 31.34220 | 29.70276 | 14678 ft | 421 kts | 126° |
| 2026-04-21 12:50 | 31.32512 | 29.73017 | 13605 ft | 412 kts | 126° |
| 2026-04-21 12:50 | 31.30839 | 29.75704 | 12482 ft | 404 kts | 126° |
| 2026-04-21 12:50 | 31.29252 | 29.78255 | 11847 ft | 378 kts | 126° |
| 2026-04-21 12:50 | 31.27767 | 29.80641 | 11529 ft | 348 kts | 126° |
| 2026-04-21 12:51 | 31.26399 | 29.82836 | 11203 ft | 324 kts | 126° |
| 2026-04-21 12:51 | 31.25089 | 29.84937 | 10696 ft | 314 kts | 126° |
| 2026-04-21 12:51 | 31.23807 | 29.86990 | 10464 ft | 312 kts | 126° |
| 2026-04-21 12:51 | 31.22530 | 29.89036 | 10226 ft | 311 kts | 126° |
| 2026-04-21 12:52 | 31.21687 | 29.90384 | 10071 ft | 309 kts | 126° |
| 2026-04-21 12:52 | 31.19977 | 29.93072 | 9864 ft | 308 kts | 129° |
| 2026-04-21 12:52 | 31.19005 | 29.94278 | 9782 ft | 308 kts | 137° |
| 2026-04-21 12:52 | 31.17332 | 29.95800 | 9641 ft | 298 kts | 148° |
| 2026-04-21 12:53 | 31.14958 | 29.97251 | 9471 ft | 284 kts | 155° |
| 2026-04-21 12:53 | 31.13770 | 29.97928 | 9383 ft | 278 kts | 155° |
| 2026-04-21 12:53 | 31.12094 | 29.98887 | 9259 ft | 265 kts | 155° |
| 2026-04-21 12:53 | 31.10408 | 29.99595 | 9131 ft | 251 kts | 169° |
| 2026-04-21 12:54 | 31.08723 | 29.99842 | 9000 ft | 237 kts | 182° |
| 2026-04-21 12:54 | 31.07127 | 29.99686 | 8872 ft | 224 kts | 195° |
| 2026-04-21 12:54 | 31.05672 | 29.99206 | 8743 ft | 212 kts | 204° |
| 2026-04-21 12:54 | 31.04289 | 29.98656 | 8472 ft | 210 kts | 203° |
| 2026-04-21 12:55 | 31.02901 | 29.98107 | 8148 ft | 211 kts | 202° |
| 2026-04-21 12:55 | 31.01499 | 29.97555 | 7807 ft | 214 kts | 201° |
| 2026-04-21 12:55 | 31.00080 | 29.96998 | 7458 ft | 216 kts | 202° |
| 2026-04-21 12:55 | 30.98664 | 29.96443 | 7108 ft | 218 kts | 202° |
| 2026-04-21 12:56 | 30.97218 | 29.95875 | 6748 ft | 220 kts | 200° |
| 2026-04-21 12:56 | 30.95763 | 29.95305 | 6392 ft | 222 kts | 200° |
| 2026-04-21 12:56 | 30.94296 | 29.94729 | 6008 ft | 223 kts | 200° |
| 2026-04-21 12:56 | 30.92815 | 29.94148 | 5644 ft | 225 kts | 200° |
| 2026-04-21 12:57 | 30.91326 | 29.93563 | 5273 ft | 226 kts | 201° |
| 2026-04-21 12:57 | 30.89843 | 29.92982 | 4929 ft | 220 kts | 200° |
| 2026-04-21 12:57 | 30.88409 | 29.92421 | 4502 ft | 215 kts | 201° |
| 2026-04-21 12:57 | 30.87007 | 29.91874 | 4145 ft | 210 kts | 200° |
| 2026-04-21 12:58 | 30.85636 | 29.91341 | 3802 ft | 205 kts | 201° |
| 2026-04-21 12:58 | 30.84299 | 29.90820 | 3469 ft | 200 kts | 202° |
| 2026-04-21 12:58 | 30.82987 | 29.90310 | 3140 ft | 197 kts | 202° |
| 2026-04-21 12:58 | 30.81716 | 29.89813 | 2820 ft | 192 kts | 201° |
| 2026-04-21 12:59 | 30.80522 | 29.89191 | 2508 ft | 184 kts | 216° |
| 2026-04-21 12:59 | 30.79565 | 29.88251 | 2272 ft | 174 kts | 234° |
| 2026-04-21 12:59 | 30.78867 | 29.87198 | 2231 ft | 155 kts | 239° |
| 2026-04-21 12:59 | 30.78247 | 29.86246 | 2168 ft | 142 kts | 238° |
| 2026-04-21 13:00 | 30.77679 | 29.85373 | 2114 ft | 134 kts | 239° |
| 2026-04-21 13:00 | 30.77123 | 29.84516 | 2060 ft | 131 kts | 239° |
| 2026-04-21 13:00 | 30.76825 | 29.83561 | 2028 ft | 125 kts | 274° |
| 2026-04-21 13:00 | 30.77064 | 29.82621 | 2015 ft | 121 kts | 308° |
| 2026-04-21 13:01 | 30.77680 | 29.81983 | 2035 ft | 119 kts | 326° |
| 2026-04-21 13:01 | 30.78333 | 29.81411 | 2016 ft | 117 kts | 326° |
| 2026-04-21 13:01 | 30.78971 | 29.80849 | 2012 ft | 115 kts | 325° |
| 2026-04-21 13:01 | 30.79613 | 29.80285 | 2012 ft | 116 kts | 324° |
| 2026-04-21 13:02 | 30.80257 | 29.79720 | 2018 ft | 115 kts | 324° |
| 2026-04-21 13:02 | 30.80887 | 29.79168 | 2011 ft | 112 kts | 324° |
| 2026-04-21 13:02 | 30.82097 | 29.78107 | 2011 ft | 108 kts | 324° |
| 2026-04-21 13:03 | 30.82704 | 29.77576 | 1968 ft | 109 kts | 324° |
| 2026-04-21 13:03 | 30.83305 | 29.77049 | 1872 ft | 107 kts | 324° |
| 2026-04-21 13:03 | 30.83907 | 29.76522 | 1754 ft | 108 kts | 325° |
| 2026-04-21 13:03 | 30.84505 | 29.75998 | 1624 ft | 108 kts | 326° |
| 2026-04-21 13:04 | 30.85103 | 29.75474 | 1490 ft | 107 kts | 326° |
| 2026-04-21 13:04 | 30.85697 | 29.74952 | 1350 ft | 106 kts | 326° |
| 2026-04-21 13:04 | 30.86286 | 29.74436 | 1208 ft | 106 kts | 325° |
| 2026-04-21 13:04 | 30.86879 | 29.73916 | 1062 ft | 107 kts | 325° |
| 2026-04-21 13:05 | 30.87475 | 29.73398 | 936 ft | 107 kts | 325° |
| 2026-04-21 13:05 | 30.88056 | 29.72890 | 832 ft | 105 kts | 324° |
| 2026-04-21 13:05 | 30.88641 | 29.72377 | 683 ft | 105 kts | 323° |
| 2026-04-21 13:05 | 30.89228 | 29.71857 | 548 ft | 107 kts | 323° |
| 2026-04-21 13:06 | 30.89823 | 29.71325 | 396 ft | 109 kts | 323° |
| 2026-04-21 13:06 | 30.90426 | 29.70800 | 249 ft | 107 kts | 321° |
| 2026-04-21 13:06 | 30.91012 | 29.70293 | 160 ft | 96 kts | 317° |
| 2026-04-21 13:06 | 30.91456 | 29.69898 | 162 ft | 47 kts | 322° |
| 2026-04-21 13:07 | 30.91749 | 29.69639 | 161 ft | 59 kts | 323° |
| 2026-04-21 13:07 | 30.92048 | 29.69378 | 163 ft | 33 kts | 322° |
| 2026-04-21 13:07 | 30.92246 | 29.69202 | 164 ft | 39 kts | 323° |
| 2026-04-21 13:07 | 30.92461 | 29.69017 | 163 ft | 28 kts | 335° |
| 2026-04-21 13:08 | 30.92520 | 29.69059 | 161 ft | 8 kts | 58° |
| 2026-04-21 13:08 | 30.92564 | 29.69130 | 164 ft | 13 kts | 52° |
| 2026-04-21 13:08 | 30.92633 | 29.69231 | 164 ft | 18 kts | 52° |
| 2026-04-21 13:08 | 30.92711 | 29.69349 | 165 ft | 21 kts | 52° |
| 2026-04-21 13:09 | 30.92802 | 29.69491 | 165 ft | 18 kts | 53° |
| 2026-04-21 13:09 | 30.92885 | 29.69616 | 166 ft | 17 kts | 47° |
| 2026-04-21 13:09 | 30.92990 | 29.69578 | 166 ft | 19 kts | 322° |
| 2026-04-21 13:09 | 30.93054 | 29.69593 | 166 ft | 12 kts | 54° |
| 2026-04-21 13:10 | 30.93089 | 29.69631 | 167 ft | 0 kts | 37° |